Terminal Aerodrome Forecast
Issued by NWS Cleveland, OH

Home | Current Version | Previous Version | Text Only | Print | Product List | Glossary On
Versions: 1 2 3 4 5 6 7 8 9 10 11 12 13 14
455
FTUS41 KCLE 251121
TAFCAK
TAF
KCAK 251121Z 2512/2612 20006KT P6SM SCT060 OVC120
     FM251800 24008KT P6SM OVC060
     FM252000 08008KT P6SM OVC035
      TEMPO 2520/2524 6SM HZ OVC025
     FM260000 10006KT 5SM BR OVC025
     FM260600 14008KT 6SM BR OVC045=

USA.gov is the U.S. government's official web portal to all federal, state and local government web resources and services.